Time;durP1;ratioP1;P1;durP2;ratioP2;P2;SDS_P1;SDS_P2;PMS_P1;PMS_P2;Temp;Humidity;BMP_temperature;BMP_pressure;BME280_temperature;BME280_humidity;BME280_pressure;Samples;Min_cycle;Max_cycle;Signal;HPM_P1;HPM_P2
2021/08/29 00:01:41;;;;;;;5.28;2.88;;;;;;;17.90;66.76;100140.75;5961384;24;20040;-87
2021/08/29 00:04:08;;;;;;;3.80;2.63;;;;;;;17.91;66.97;100147.75;5959934;24;20490;-89
2021/08/29 00:06:35;;;;;;;4.18;2.40;;;;;;;17.91;66.77;100145.09;5959605;24;20035;-89
2021/08/29 00:09:04;;;;;;;6.93;3.17;;;;;;;17.90;66.74;100146.91;5983471;24;20032;-87
2021/08/29 00:11:32;;;;;;;6.78;3.05;;;;;;;17.91;66.75;100142.44;5959694;24;20035;-90
2021/08/29 00:13:58;;;;;;;4.57;2.78;;;;;;;17.92;66.62;100146.78;5959322;24;20028;-88
2021/08/29 00:16:25;;;;;;;5.40;2.88;;;;;;;17.91;66.66;100142.44;5960375;24;20021;-88
2021/08/29 00:18:52;;;;;;;7.22;2.92;;;;;;;17.92;66.50;100138.78;5986937;24;20028;-87
2021/08/29 00:21:18;;;;;;;6.97;3.00;;;;;;;17.91;66.97;100132.59;5958974;24;20035;-89
2021/08/29 00:23:45;;;;;;;5.40;2.75;;;;;;;17.92;66.97;100134.31;5984846;24;20433;-88
2021/08/29 00:26:11;;;;;;;11.13;2.85;;;;;;;17.92;67.03;100131.66;5960769;24;20024;-87
2021/08/29 00:28:38;;;;;;;4.93;3.03;;;;;;;17.93;67.04;100120.03;5984901;23;20469;-87
2021/08/29 00:31:04;;;;;;;9.20;2.70;;;;;;;17.94;67.14;100126.22;5959812;24;20024;-87
2021/08/29 00:33:31;;;;;;;9.13;3.20;;;;;;;17.94;67.10;100118.22;5960939;24;20031;-88
2021/08/29 00:35:58;;;;;;;7.65;3.25;;;;;;;17.94;67.12;100120.88;5959322;24;20369;-88
2021/08/29 00:38:25;;;;;;;4.50;2.90;;;;;;;17.95;66.98;100117.25;5959436;24;20031;-88
2021/08/29 00:40:52;;;;;;;5.88;2.88;;;;;;;17.94;67.11;100107.56;5959858;24;20041;-88
2021/08/29 00:43:23;;;;;;;6.05;3.38;;;;;;;17.93;67.01;100103.19;5984752;23;20024;-87
2021/08/29 00:45:52;;;;;;;6.25;3.10;;;;;;;17.94;66.90;100110.22;5984482;24;20047;-88
2021/08/29 00:48:19;;;;;;;7.57;2.88;;;;;;;17.95;67.26;100111.91;5959520;24;20059;-88
2021/08/29 00:50:47;;;;;;;7.15;3.50;;;;;;;17.96;67.04;100102.94;5983907;23;20047;-88
2021/08/29 00:53:18;;;;;;;8.60;3.28;;;;;;;17.96;67.27;100102.94;5983912;23;20024;-88
2021/08/29 00:55:46;;;;;;;6.28;2.63;;;;;;;17.96;67.23;100101.13;5984379;24;20391;-89
2021/08/29 00:58:12;;;;;;;8.93;3.40;;;;;;;17.97;67.13;100099.28;5959254;24;20031;-90
2021/08/29 01:00:43;;;;;;;7.32;2.88;;;;;;;17.98;67.35;100101.84;5958708;24;20484;-88
2021/08/29 01:03:30;;;;;;;12.00;3.70;;;;;;;17.94;67.60;100094.25;5958976;24;20084;-88
2021/08/29 01:06:06;;;;;;;9.82;2.70;;;;;;;17.98;67.25;100095.66;5983243;23;20028;-89
2021/08/29 01:08:38;;;;;;;7.20;3.38;;;;;;;18.00;67.21;100100.84;5983116;24;20492;-90
2021/08/29 01:11:17;;;;;;;6.45;3.08;;;;;;;18.00;67.29;100096.38;5983515;24;20035;-88
2021/08/29 01:13:47;;;;;;;7.90;3.10;;;;;;;18.01;67.11;100094.59;5959349;24;20028;-88
2021/08/29 01:16:19;;;;;;;8.90;3.55;;;;;;;18.00;67.42;100091.06;5983033;24;20476;-88
2021/08/29 01:18:50;;;;;;;9.00;3.13;;;;;;;18.00;67.51;100083.06;5959765;24;20421;-90
2021/08/29 01:21:19;;;;;;;10.93;4.03;;;;;;;18.02;67.19;100091.75;5959498;24;20365;-89
2021/08/29 01:23:51;;;;;;;8.80;3.45;;;;;;;18.00;67.47;100088.41;5958688;24;20058;-88
2021/08/29 01:26:28;;;;;;;10.10;3.58;;;;;;;17.97;67.61;100085.97;5958770;24;20040;-88
2021/08/29 01:29:06;;;;;;;6.63;3.03;;;;;;;18.01;67.54;100089.25;5958916;24;20028;-88
2021/08/29 01:31:35;;;;;;;8.85;3.88;;;;;;;18.01;67.45;100082.09;5958834;24;20028;-88
2021/08/29 01:34:09;;;;;;;8.23;4.15;;;;;;;17.99;67.75;100084.06;5958617;24;20053;-90
2021/08/29 01:36:39;;;;;;;11.07;3.25;;;;;;;18.00;67.63;100077.75;5982800;24;20036;-88
2021/08/29 01:39:06;;;;;;;13.85;3.88;;;;;;;18.01;67.42;100082.09;5935971;24;20024;-88
2021/08/29 01:41:36;;;;;;;11.13;3.70;;;;;;;18.00;67.76;100075.06;5958575;24;20345;-88
2021/08/29 01:44:04;;;;;;;10.07;3.85;;;;;;;18.01;67.57;100079.44;5983225;24;20032;-88
2021/08/29 01:46:32;;;;;;;9.48;3.78;;;;;;;18.02;67.80;100078.44;5983036;24;20469;-87
2021/08/29 01:49:00;;;;;;;14.25;4.30;;;;;;;18.04;67.70;100078.31;5958105;24;20080;-87
2021/08/29 01:51:26;;;;;;;10.52;3.92;;;;;;;18.03;67.56;100088.16;5952812;24;20025;-89
2021/08/29 01:53:53;;;;;;;7.85;3.53;;;;;;;18.03;67.89;100080.16;5954713;23;20410;-88
2021/08/29 01:56:19;;;;;;;10.50;3.72;;;;;;;18.04;67.97;100076.50;5954581;24;20024;-88
2021/08/29 01:58:46;;;;;;;9.07;3.65;;;;;;;18.06;67.94;100081.72;5954252;24;20028;-90
2021/08/29 02:01:13;;;;;;;9.30;3.70;;;;;;;18.05;67.82;100075.53;5955361;23;20084;-89
2021/08/29 02:03:42;;;;;;;8.55;3.85;;;;;;;18.06;67.71;100077.22;5954092;24;20346;-88
2021/08/29 02:06:16;;;;;;;9.30;3.80;;;;;;;18.05;68.33;100080.84;5954139;24;20048;-89
2021/08/29 02:08:54;;;;;;;9.70;3.40;;;;;;;18.04;68.32;100079.19;5953624;24;20028;-90
2021/08/29 02:11:21;;;;;;;9.40;3.92;;;;;;;18.08;67.82;100074.47;5955042;24;20357;-87
2021/08/29 02:13:53;;;;;;;13.13;3.75;;;;;;;18.07;68.14;100075.41;5953823;24;20032;-89
2021/08/29 02:16:22;;;;;;;10.27;3.83;;;;;;;18.05;67.83;100078.19;5956026;24;20033;-89
2021/08/29 02:18:53;;;;;;;10.52;3.92;;;;;;;18.05;68.28;100080.03;5953097;24;20544;-88
2021/08/29 02:21:24;;;;;;;9.93;3.95;;;;;;;18.06;67.89;100068.41;5953139;24;20453;-88
2021/08/29 02:23:50;;;;;;;7.38;3.38;;;;;;;18.04;68.02;100068.53;5954203;24;20039;-89
2021/08/29 02:26:17;;;;;;;10.13;3.95;;;;;;;18.05;68.03;100072.03;5954774;24;20531;-89
2021/08/29 02:28:44;;;;;;;13.77;4.18;;;;;;;18.04;68.04;100065.00;5953952;24;20029;-89
2021/08/29 02:31:11;;;;;;;11.20;4.40;;;;;;;18.03;67.96;100061.50;5953178;24;20044;-89
2021/08/29 02:33:40;;;;;;;14.20;4.30;;;;;;;18.03;67.99;100065.97;5953158;24;20281;-89
2021/08/29 02:36:07;;;;;;;11.90;3.83;;;;;;;18.04;68.38;100063.19;5953279;24;20024;-87
2021/08/29 02:38:34;;;;;;;6.75;3.58;;;;;;;18.04;68.08;100067.66;5952530;24;20028;-87
2021/08/29 02:41:02;;;;;;;9.75;4.40;;;;;;;18.04;68.17;100063.19;5952932;24;20024;-87
2021/08/29 02:43:29;;;;;;;7.97;3.63;;;;;;;18.04;68.31;100059.69;5954807;24;20040;-87
2021/08/29 02:45:56;;;;;;;9.85;4.05;;;;;;;18.04;68.35;100059.69;5951883;24;20032;-87
2021/08/29 02:48:24;;;;;;;10.38;4.13;;;;;;;18.03;68.40;100060.66;5954352;24;20077;-88
2021/08/29 02:50:52;;;;;;;10.90;4.40;;;;;;;18.04;68.55;100059.69;5952582;24;20036;-87
2021/08/29 02:53:18;;;;;;;9.80;3.65;;;;;;;18.02;68.41;100059.81;5952645;24;20039;-87
2021/08/29 02:55:46;;;;;;;11.43;4.40;;;;;;;18.02;68.34;100061.63;5953872;24;20035;-88
2021/08/29 02:58:14;;;;;;;10.05;4.35;;;;;;;18.02;68.25;100054.47;5953156;24;20025;-88
2021/08/29 03:00:40;;;;;;;11.30;4.28;;;;;;;18.00;68.55;100051.09;5952063;24;20037;-87
2021/08/29 03:03:08;;;;;;;9.65;3.78;;;;;;;18.00;68.42;100048.44;5953323;24;20080;-85
2021/08/29 03:05:35;;;;;;;14.23;4.60;;;;;;;18.00;68.60;100048.44;5954657;24;20056;-88
2021/08/29 03:08:02;;;;;;;8.07;3.85;;;;;;;17.99;68.65;100044.09;5954927;24;20031;-86
2021/08/29 03:10:28;;;;;;;12.27;3.97;;;;;;;17.98;68.49;100050.38;5954844;24;20037;-89
2021/08/29 03:12:56;;;;;;;10.68;3.75;;;;;;;17.97;68.47;100040.69;5953341;24;20025;-87
2021/08/29 03:15:23;;;;;;;9.35;3.88;;;;;;;17.95;68.56;100032.00;5954394;24;20098;-88
2021/08/29 03:17:50;;;;;;;8.18;3.97;;;;;;;17.95;68.82;100040.81;5952791;24;20025;-88
2021/08/29 03:20:17;;;;;;;10.25;3.92;;;;;;;17.94;68.84;100035.66;5953189;24;20025;-92
2021/08/29 03:22:44;;;;;;;12.52;4.30;;;;;;;17.93;68.75;100028.63;5952625;24;20085;-89
2021/08/29 03:25:11;;;;;;;9.85;4.07;;;;;;;17.92;69.00;100035.78;5953135;24;20028;-88
2021/08/29 03:27:38;;;;;;;13.13;4.63;;;;;;;17.92;69.09;100030.44;5954569;24;20025;-89
2021/08/29 03:30:09;;;;;;;13.65;4.35;;;;;;;17.90;69.48;100039.56;5953293;24;20029;-92
2021/08/29 03:32:37;;;;;;;11.68;4.78;;;;;;;17.91;69.17;100034.06;5952895;24;20028;-90
2021/08/29 03:35:05;;;;;;;13.07;4.30;;;;;;;17.90;68.94;100035.03;5954122;23;20490;-87
2021/08/29 03:37:32;;;;;;;10.57;4.00;;;;;;;17.90;69.21;100029.72;5954010;24;20024;-88
2021/08/29 03:40:04;;;;;;;13.25;3.97;;;;;;;17.88;69.71;100026.34;5952256;24;20460;-88
2021/08/29 03:42:32;;;;;;;9.90;4.32;;;;;;;17.90;69.30;100023.56;5954118;24;20047;-90
2021/08/29 03:44:59;;;;;;;8.15;4.13;;;;;;;17.91;69.21;100019.94;5952738;24;20029;-88
2021/08/29 03:47:27;;;;;;;11.82;4.75;;;;;;;17.91;69.31;100022.59;5952718;24;20254;-88
2021/08/29 03:49:54;;;;;;;9.38;3.65;;;;;;;17.89;69.33;100012.06;5952125;24;20036;-89
2021/08/29 03:52:21;;;;;;;10.13;3.92;;;;;;;17.91;69.43;100017.25;5954234;24;20361;-89
2021/08/29 03:54:47;;;;;;;10.30;4.00;;;;;;;17.90;69.35;100018.25;5952381;24;20028;-88
2021/08/29 03:57:15;;;;;;;5.97;3.47;;;;;;;17.90;69.23;100019.06;5952423;24;20036;-90
2021/08/29 03:59:41;;;;;;;8.98;4.35;;;;;;;17.91;69.45;100025.25;5953917;24;20024;-89
2021/08/29 04:02:09;;;;;;;7.30;4.13;;;;;;;17.90;69.53;100023.56;5954673;24;20032;-89
2021/08/29 04:04:36;;;;;;;8.23;4.07;;;;;;;17.90;69.50;100026.22;5952703;24;20060;-90
2021/08/29 04:07:05;;;;;;;8.43;4.00;;;;;;;17.89;69.51;100021.84;5953498;24;20032;-88
2021/08/29 04:09:33;;;;;;;8.55;4.07;;;;;;;17.89;69.48;100014.72;5952236;24;20033;-87
2021/08/29 04:12:00;;;;;;;8.30;3.80;;;;;;;17.89;69.40;100012.06;5954599;24;20036;-88
2021/08/29 04:14:28;;;;;;;9.82;3.83;;;;;;;17.89;69.61;100012.06;5953095;24;20036;-90
2021/08/29 04:16:57;;;;;;;5.88;3.80;;;;;;;17.90;69.71;100018.25;5952943;24;20029;-89
2021/08/29 04:19:26;;;;;;;7.68;3.45;;;;;;;17.89;69.65;100020.06;5952269;24;20033;-91
2021/08/29 04:21:54;;;;;;;7.88;4.00;;;;;;;17.89;69.13;100016.53;5954746;24;20037;-89
2021/08/29 04:24:21;;;;;;;9.93;4.22;;;;;;;17.88;69.32;100013.03;5952563;24;20024;-89
2021/08/29 04:26:48;;;;;;;7.38;3.83;;;;;;;17.88;69.52;100020.16;5954992;24;20045;-88
2021/08/29 04:29:15;;;;;;;10.90;3.92;;;;;;;17.87;69.21;100018.50;5955921;23;20075;-88
2021/08/29 04:31:47;;;;;;;10.20;3.85;;;;;;;17.84;69.65;100015.09;5954623;24;20024;-92
2021/08/29 04:34:14;;;;;;;7.93;3.92;;;;;;;17.84;69.39;100012.44;5954211;24;20032;-90
2021/08/29 04:36:41;;;;;;;8.45;4.32;;;;;;;17.83;69.29;100016.06;5954773;24;20480;-89
2021/08/29 04:39:08;;;;;;;8.15;4.22;;;;;;;17.82;69.56;100014.41;5956184;23;20035;-89
2021/08/29 04:41:36;;;;;;;7.82;4.03;;;;;;;17.81;69.65;100015.38;5954034;24;20060;-88
2021/08/29 04:44:04;;;;;;;7.00;3.80;;;;;;;17.81;69.55;100004.72;5956440;24;20028;-90
2021/08/29 04:46:31;;;;;;;9.30;3.97;;;;;;;17.81;69.62;100004.72;5956413;24;20024;-89
2021/08/29 04:48:58;;;;;;;8.15;3.80;;;;;;;17.82;69.40;100013.53;5954626;24;20331;-88
2021/08/29 04:51:24;;;;;;;10.32;4.20;;;;;;;17.82;69.56;100019.72;5977656;24;20032;-88
2021/08/29 04:53:51;;;;;;;7.55;3.92;;;;;;;17.80;69.61;100008.34;5958974;24;20032;-90
2021/08/29 04:56:17;;;;;;;9.48;3.55;;;;;;;17.80;69.63;100013.66;5983214;23;20043;-90
2021/08/29 04:58:44;;;;;;;6.57;3.53;;;;;;;17.80;69.49;100018.16;5983131;23;20021;-89
2021/08/29 05:01:11;;;;;;;7.35;3.63;;;;;;;17.79;69.41;100016.47;5958994;24;20032;-88
2021/08/29 05:03:38;;;;;;;6.60;3.30;;;;;;;17.78;69.40;100015.63;5959008;24;20081;-88
2021/08/29 05:06:05;;;;;;;8.63;3.58;;;;;;;17.78;69.36;100012.97;5959106;24;20035;-91
2021/08/29 05:08:31;;;;;;;8.18;4.05;;;;;;;17.77;69.51;100013.09;5959395;24;20020;-90
2021/08/29 05:10:58;;;;;;;6.97;4.07;;;;;;;17.77;69.59;100013.09;5959491;24;20025;-92
2021/08/29 05:13:25;;;;;;;9.80;3.90;;;;;;;17.75;69.36;100013.22;5960518;24;20099;-91
2021/08/29 05:15:54;;;;;;;6.95;3.65;;;;;;;17.76;69.64;100014.06;5959118;24;20049;-90
2021/08/29 05:18:21;;;;;;;8.20;4.00;;;;;;;17.77;69.50;100007.75;5983387;23;20020;-88
2021/08/29 05:20:47;;;;;;;8.73;4.20;;;;;;;17.77;69.39;100008.63;5958851;24;20032;-91
2021/08/29 05:23:30;;;;;;;6.82;3.17;;;;;;;17.77;69.62;100011.28;5983522;24;20028;-89
2021/08/29 05:25:58;;;;;;;9.05;3.53;;;;;;;17.75;69.23;100010.53;5982903;23;20031;-90
2021/08/29 05:28:25;;;;;;;6.70;3.28;;;;;;;17.74;69.24;100008.88;5958798;24;20020;-89
2021/08/29 05:30:52;;;;;;;8.88;2.90;;;;;;;17.74;69.22;100003.53;5982637;24;20020;-89
2021/08/29 05:33:21;;;;;;;4.97;3.28;;;;;;;17.71;69.47;100011.78;5958560;24;20536;-88
2021/08/29 05:35:47;;;;;;;6.25;3.15;;;;;;;17.71;69.29;100011.78;5983299;24;20028;-90
2021/08/29 05:38:23;;;;;;;5.72;3.20;;;;;;;17.65;69.88;100009.63;5958340;24;20027;-93
2021/08/29 05:40:50;;;;;;;5.05;2.78;;;;;;;17.68;69.65;100012.06;5984387;24;20032;-90
2021/08/29 05:43:16;;;;;;;5.13;2.88;;;;;;;17.67;69.39;100010.34;5984049;24;20399;-91
2021/08/29 05:45:46;;;;;;;5.15;3.05;;;;;;;17.65;69.55;100009.63;5985237;24;20031;-92
2021/08/29 05:48:13;;;;;;;5.45;2.63;;;;;;;17.64;69.47;100007.94;5987592;24;20024;-91
2021/08/29 05:50:40;;;;;;;5.35;2.53;;;;;;;17.63;69.49;100001.78;5983185;24;20035;-92
2021/08/29 05:53:08;;;;;;;5.63;2.60;;;;;;;17.63;69.52;100009.75;5959305;24;20028;-89
2021/08/29 05:55:35;;;;;;;4.07;2.55;;;;;;;17.61;69.41;100006.41;5959820;24;20028;-92
2021/08/29 05:58:04;;;;;;;3.83;2.55;;;;;;;17.61;69.59;100005.53;5983769;23;20020;-91
2021/08/29 06:00:32;;;;;;;3.30;1.98;;;;;;;17.60;69.50;100006.50;5960813;24;20103;-89
2021/08/29 06:03:05;;;;;;;3.95;2.20;;;;;;;17.58;69.35;100002.13;5959972;24;20035;-91
2021/08/29 06:05:35;;;;;;;3.38;2.13;;;;;;;17.57;69.61;100007.63;5984146;23;20524;-92
2021/08/29 06:08:14;;;;;;;2.90;2.25;;;;;;;17.55;69.85;100005.06;5960541;24;20428;-92
2021/08/29 06:11:14;;;;;;;4.15;2.35;;;;;;;17.52;69.90;100005.31;5963419;24;20034;-91
2021/08/29 06:13:56;;;;;;;3.90;2.17;;;;;;;17.56;69.40;99998.78;5983306;23;20033;-91
2021/08/29 06:16:23;;;;;;;4.35;2.20;;;;;;;17.55;69.49;99994.44;5984301;23;20028;-91
2021/08/29 06:18:50;;;;;;;2.92;2.10;;;;;;;17.55;69.47;99994.44;5983578;24;20024;-91
2021/08/29 06:21:18;;;;;;;4.05;2.08;;;;;;;17.55;69.52;99993.56;5959523;24;20046;-92
2021/08/29 06:23:45;;;;;;;4.63;2.22;;;;;;;17.53;69.54;99991.03;5984031;24;20028;-92
2021/08/29 06:26:11;;;;;;;3.75;1.75;;;;;;;17.51;69.65;99984.16;5982968;24;20035;-90
2021/08/29 06:28:38;;;;;;;2.10;1.63;;;;;;;17.51;69.71;99986.81;5960613;24;20036;-90
2021/08/29 06:31:05;;;;;;;2.75;2.10;;;;;;;17.50;69.57;99980.66;5958337;24;20472;-90
2021/08/29 06:33:31;;;;;;;3.15;1.85;;;;;;;17.50;69.62;99979.81;5982499;24;20055;-91
2021/08/29 06:36:01;;;;;;;2.25;1.85;;;;;;;17.50;69.49;99975.34;5959175;24;20103;-90
2021/08/29 06:38:34;;;;;;;1.80;1.48;;;;;;;17.48;70.02;99976.41;5959446;24;20096;-91
2021/08/29 06:41:02;;;;;;;2.60;1.80;;;;;;;17.49;69.54;99968.31;5938092;24;20031;-91
2021/08/29 06:43:29;;;;;;;1.73;1.50;;;;;;;17.49;69.79;99978.94;5986683;23;20028;-92
2021/08/29 06:45:56;;;;;;;2.90;1.55;;;;;;;17.48;69.54;99979.94;5967430;24;20028;-91
2021/08/29 06:48:22;;;;;;;2.28;1.65;;;;;;;17.48;69.80;99969.28;5969030;23;20016;-92
2021/08/29 06:50:49;;;;;;;2.40;1.77;;;;;;;17.48;69.68;99963.97;5988433;23;20028;-91
2021/08/29 06:53:18;;;;;;;2.97;1.55;;;;;;;17.49;70.13;99973.63;5964305;24;20032;-92
2021/08/29 06:55:48;;;;;;;1.85;1.10;;;;;;;17.50;69.65;99969.16;5965678;24;20012;-92
2021/08/29 06:58:22;;;;;;;1.95;1.40;;;;;;;17.49;69.75;99970.16;5986808;23;20016;-91
2021/08/29 07:01:03;;;;;;;2.42;1.55;;;;;;;17.47;70.07;99961.44;5984298;24;20080;-91
2021/08/29 07:03:30;;;;;;;2.65;1.63;;;;;;;17.48;69.98;99974.59;5961413;24;20031;-92
2021/08/29 07:05:56;;;;;;;3.47;1.80;;;;;;;17.47;69.96;99964.94;5984434;23;20024;-90
2021/08/29 07:08:26;;;;;;;2.33;1.35;;;;;;;17.45;70.09;99967.72;5961402;24;20089;-91
2021/08/29 07:10:55;;;;;;;5.72;1.80;;;;;;;17.47;70.02;99969.41;5960558;24;20357;-91
2021/08/29 07:13:24;;;;;;;2.95;1.60;;;;;;;17.45;70.05;99966.88;5959963;24;20024;-91
2021/08/29 07:15:51;;;;;;;2.03;1.70;;;;;;;17.46;70.05;99965.94;5959866;24;20453;-91
2021/08/29 07:18:20;;;;;;;2.15;1.45;;;;;;;17.47;70.19;99972.94;5959675;24;20020;-92
2021/08/29 07:20:47;;;;;;;2.28;1.38;;;;;;;17.47;70.06;99961.44;5958447;24;20361;-92
2021/08/29 07:23:33;;;;;;;3.10;1.90;;;;;;;17.49;70.42;99962.97;5981962;24;20028;-91
2021/08/29 07:26:04;;;;;;;2.33;1.40;;;;;;;17.52;70.17;99973.38;5959304;24;20032;-90
2021/08/29 07:28:44;;;;;;;1.63;1.45;;;;;;;17.51;70.41;99966.38;5983426;23;20031;-89
2021/08/29 07:31:11;;;;;;;1.33;1.20;;;;;;;17.56;70.15;99974.81;5958900;24;20028;-90
2021/08/29 07:33:39;;;;;;;2.05;1.60;;;;;;;17.57;70.06;99975.69;5984039;24;20035;-90
2021/08/29 07:36:22;;;;;;;1.45;1.20;;;;;;;17.56;70.44;99972.16;5960021;24;20039;-92
2021/08/29 07:39:01;;;;;;;2.20;1.48;;;;;;;17.58;70.43;99972.88;5961598;24;20073;-90
2021/08/29 07:41:27;;;;;;;1.35;1.25;;;;;;;17.62;70.24;99972.63;5958461;24;20032;-91
2021/08/29 07:43:54;;;;;;;1.67;1.50;;;;;;;17.65;70.38;99972.38;5982704;24;20028;-92
2021/08/29 07:46:28;;;;;;;1.30;1.15;;;;;;;17.67;69.96;99975.72;5934890;24;20492;-90
2021/08/29 07:48:58;;;;;;;1.20;1.10;;;;;;;17.69;70.45;99969.31;5982484;24;20020;-90
2021/08/29 07:51:25;;;;;;;1.88;1.20;;;;;;;17.73;69.93;99971.72;5954067;24;20036;-89
2021/08/29 07:53:51;;;;;;;2.67;1.10;;;;;;;17.73;69.97;99983.22;5955123;24;20412;-90
2021/08/29 07:56:18;;;;;;;1.35;1.25;;;;;;;17.74;70.29;99971.59;5954284;24;20269;-91
2021/08/29 07:58:45;;;;;;;1.67;1.40;;;;;;;17.75;70.01;99978.59;5954134;24;20485;-90
2021/08/29 08:01:20;;;;;;;1.40;1.30;;;;;;;17.73;70.72;99972.56;5953291;24;20032;-92
2021/08/29 08:03:48;;;;;;;2.00;1.77;;;;;;;17.80;70.38;99971.06;5953926;24;20055;-92
2021/08/29 08:06:20;;;;;;;2.17;1.75;;;;;;;17.82;70.22;99966.47;5955328;24;20177;-91
2021/08/29 08:08:54;;;;;;;2.10;1.83;;;;;;;17.85;70.16;99970.69;5955256;24;20541;-90
2021/08/29 08:11:20;;;;;;;2.78;1.98;;;;;;;17.88;70.13;99970.44;5955417;24;20070;-91
2021/08/29 08:13:49;;;;;;;2.05;1.85;;;;;;;17.92;70.32;99977.19;5956247;24;20091;-91
2021/08/29 08:16:30;;;;;;;3.63;2.03;;;;;;;17.91;70.56;99982.66;5955208;24;20029;-92
2021/08/29 08:18:57;;;;;;;2.00;1.80;;;;;;;17.97;70.12;99974.97;5957586;24;20027;-89
2021/08/29 08:21:25;;;;;;;3.00;1.95;;;;;;;18.00;70.42;99986.31;5955130;24;20025;-91
2021/08/29 08:24:06;;;;;;;2.30;1.77;;;;;;;18.03;70.14;99978.94;5955606;24;20505;-91
2021/08/29 08:26:44;;;;;;;3.15;2.10;;;;;;;18.03;70.74;99986.94;5978467;24;20032;-89
2021/08/29 08:29:11;;;;;;;2.72;2.38;;;;;;;18.11;70.26;99983.63;5957668;24;20044;-89
2021/08/29 08:31:38;;;;;;;3.30;2.30;;;;;;;18.14;69.94;99979.88;5955090;24;20031;-90
2021/08/29 08:34:10;;;;;;;2.25;2.05;;;;;;;18.17;70.35;99992.94;5955116;24;20488;-92
2021/08/29 08:36:42;;;;;;;2.13;1.80;;;;;;;18.21;69.96;99992.53;5978417;24;20028;-91
2021/08/29 08:39:21;;;;;;;2.28;1.90;;;;;;;18.20;70.32;99993.50;5955451;24;20027;-93
2021/08/29 08:42:29;;;;;;;3.13;2.08;;;;;;;18.22;70.40;99991.56;5957118;24;20036;-92
2021/08/29 08:44:56;;;;;;;3.22;1.80;;;;;;;18.31;69.88;99994.38;5955207;24;20027;-91
2021/08/29 08:47:32;;;;;;;2.35;2.15;;;;;;;18.29;69.81;99999.88;5957091;23;20027;-93
2021/08/29 08:50:43;;;;;;;2.28;2.08;;;;;;;18.33;69.77;99997.78;5879700;24;20030;-91
2021/08/29 08:53:46;;;;;;;2.60;2.10;;;;;;;18.33;69.94;99998.63;5914583;23;20028;-93
2021/08/29 08:56:19;;;;;;;2.38;1.90;;;;;;;18.39;69.54;99991.09;5954850;24;20020;-92
2021/08/29 08:58:56;;;;;;;4.28;2.20;;;;;;;18.41;69.78;99989.13;5955199;24;20047;-92
2021/08/29 09:01:32;;;;;;;2.53;2.03;;;;;;;18.42;69.99;99996.13;5958104;24;20028;-93
2021/08/29 09:04:04;;;;;;;2.47;1.77;;;;;;;18.48;69.65;99998.28;5959883;24;20100;-93
2021/08/29 09:06:33;;;;;;;2.78;2.10;;;;;;;18.49;69.48;99999.97;5961309;23;20051;-94
2021/08/29 09:09:03;;;;;;;3.63;2.25;;;;;;;18.53;69.84;99998.72;5960801;23;20411;-92
2021/08/29 09:11:40;;;;;;;3.40;1.83;;;;;;;18.56;69.84;99998.47;5958123;24;20036;-91
2021/08/29 09:14:12;;;;;;;2.35;1.75;;;;;;;18.61;70.01;100001.56;5954908;24;20027;-91
2021/08/29 09:16:39;;;;;;;2.75;2.05;;;;;;;18.65;69.87;99996.78;5957154;24;20025;-92
2021/08/29 09:19:06;;;;;;;4.35;2.25;;;;;;;18.69;69.69;99994.72;5956080;24;20079;-93
2021/08/29 09:21:35;;;;;;;3.47;2.28;;;;;;;18.73;69.96;99986.31;5964022;24;20035;-91
2021/08/29 09:24:08;;;;;;;3.08;2.15;;;;;;;18.79;70.15;99992.06;5957835;24;20035;-94
2021/08/29 09:26:40;;;;;;;3.90;2.00;;;;;;;18.87;70.18;99990.44;5959889;24;20032;-93
2021/08/29 09:29:24;;;;;;;4.32;1.80;;;;;;;18.95;70.33;99988.91;5955557;24;20718;-91
2021/08/29 09:31:51;;;;;;;3.03;2.00;;;;;;;19.08;70.00;99991.34;5956010;24;20350;-91
2021/08/29 09:34:20;;;;;;;3.60;2.28;;;;;;;19.13;69.58;99995.28;5954796;24;20024;-91
2021/08/29 09:36:50;;;;;;;2.55;2.28;;;;;;;19.19;69.15;99999.25;5964747;24;20057;-91
2021/08/29 09:39:17;;;;;;;2.35;1.90;;;;;;;19.24;69.13;99990.81;5956507;24;20096;-91
2021/08/29 09:41:45;;;;;;;2.55;2.05;;;;;;;19.27;69.39;100002.06;5956273;24;20036;-91
2021/08/29 09:44:17;;;;;;;3.53;2.25;;;;;;;19.27;68.89;100011.88;5959589;23;20052;-92
2021/08/29 09:46:58;;;;;;;3.40;2.20;;;;;;;19.29;68.85;100006.41;5962599;24;20035;-91
2021/08/29 09:49:36;;;;;;;2.17;1.75;;;;;;;19.31;68.57;100004.44;5957126;24;20061;-92
2021/08/29 09:52:05;;;;;;;2.05;1.85;;;;;;;19.32;68.38;100006.97;5956226;24;20028;-93
2021/08/29 09:54:40;;;;;;;3.63;2.17;;;;;;;19.30;68.19;100006.28;5955352;24;20036;-93
2021/08/29 09:57:09;;;;;;;2.40;2.13;;;;;;;19.31;68.41;100007.09;5954773;24;20028;-91
2021/08/29 09:59:41;;;;;;;2.15;1.88;;;;;;;19.31;68.70;100007.09;5953987;24;20025;-91
2021/08/29 10:02:11;;;;;;;2.10;1.80;;;;;;;19.33;68.50;100003.31;5954947;24;20033;-94
2021/08/29 10:04:39;;;;;;;2.47;1.73;;;;;;;19.36;68.77;100010.22;5955982;24;20025;-91
2021/08/29 10:07:24;;;;;;;1.70;1.58;;;;;;;19.33;68.78;100003.31;5954508;24;20029;-91
2021/08/29 10:09:51;;;;;;;2.38;1.98;;;;;;;19.39;68.43;100005.44;5956645;24;20027;-90
2021/08/29 10:12:19;;;;;;;3.05;1.67;;;;;;;19.40;68.46;99998.28;5954775;24;20079;-90
2021/08/29 10:14:46;;;;;;;3.30;2.00;;;;;;;19.43;68.24;99997.16;5955500;24;20032;-91
2021/08/29 10:17:13;;;;;;;2.97;1.90;;;;;;;19.43;68.24;100003.31;5958936;24;20029;-90
2021/08/29 10:19:40;;;;;;;2.22;1.70;;;;;;;19.43;68.32;100006.00;5954445;24;20036;-91
2021/08/29 10:22:08;;;;;;;3.90;1.85;;;;;;;19.44;68.59;99999.66;5955949;24;20085;-90
2021/08/29 10:24:35;;;;;;;1.95;1.77;;;;;;;19.45;68.43;100003.19;5955601;24;20025;-90
2021/08/29 10:27:17;;;;;;;3.15;2.25;;;;;;;19.41;68.62;99999.97;5956095;24;20031;-91
2021/08/29 10:29:49;;;;;;;2.28;2.00;;;;;;;19.46;68.70;100002.19;5955255;24;20461;-91
2021/08/29 10:32:35;;;;;;;2.25;1.75;;;;;;;19.52;68.46;100004.34;5955416;24;20031;-90
2021/08/29 10:35:09;;;;;;;2.10;1.70;;;;;;;19.54;68.33;99994.34;5954104;24;20031;-91
2021/08/29 10:37:41;;;;;;;2.80;1.85;;;;;;;19.56;68.47;99995.06;5956931;24;20035;-90
2021/08/29 10:40:09;;;;;;;1.67;1.55;;;;;;;19.60;68.26;99993.81;5955382;24;20025;-91
2021/08/29 10:42:41;;;;;;;1.95;1.50;;;;;;;19.61;68.24;99998.16;5955592;24;20029;-89
2021/08/29 10:45:10;;;;;;;3.25;1.80;;;;;;;19.66;68.27;99990.56;5954174;24;20024;-90
2021/08/29 10:47:43;;;;;;;4.97;1.67;;;;;;;19.67;67.85;99996.75;5955486;24;20024;-88
2021/08/29 10:50:15;;;;;;;2.13;1.42;;;;;;;19.71;67.91;99999.97;5953810;24;20025;-91
2021/08/29 10:52:42;;;;;;;3.92;1.60;;;;;;;19.72;68.10;99996.31;5955907;24;20029;-90
2021/08/29 10:55:12;;;;;;;2.65;1.40;;;;;;;19.74;68.24;100005.84;5955235;24;20037;-88
2021/08/29 10:57:40;;;;;;;2.20;1.50;;;;;;;19.78;68.20;100004.59;5954831;24;20339;-88
2021/08/29 11:00:14;;;;;;;4.38;1.70;;;;;;;19.82;67.82;100005.16;5953573;24;20358;-88
2021/08/29 11:02:50;;;;;;;1.60;1.48;;;;;;;19.83;67.82;100001.50;5953948;24;20029;-89
2021/08/29 11:05:29;;;;;;;2.78;1.83;;;;;;;19.87;67.59;100004.72;5954135;24;20025;-88
2021/08/29 11:07:57;;;;;;;1.67;1.23;;;;;;;19.92;67.56;100005.13;5953515;24;20478;-90
2021/08/29 11:10:38;;;;;;;1.55;1.30;;;;;;;19.89;67.76;100006.28;5955107;24;20027;-88
2021/08/29 11:13:34;;;;;;;1.55;1.40;;;;;;;19.91;67.71;100004.31;5953877;24;20039;-89
2021/08/29 11:16:13;;;;;;;1.50;1.40;;;;;;;19.96;67.59;100003.88;5955167;24;20028;-88
2021/08/29 11:19:01;;;;;;;1.63;1.10;;;;;;;19.97;68.04;100007.41;5955509;24;20098;-91
2021/08/29 11:21:53;;;;;;;1.67;1.52;;;;;;;20.02;68.07;99999.81;5953803;24;20033;-90
2021/08/29 11:24:48;;;;;;;1.33;1.17;;;;;;;20.08;68.13;99998.41;5953145;24;20025;-87
2021/08/29 11:27:33;;;;;;;2.25;1.30;;;;;;;20.14;67.82;99993.34;5953617;24;20024;-90
2021/08/29 11:30:14;;;;;;;2.00;1.30;;;;;;;20.21;67.66;99998.09;5955178;24;20462;-87
2021/08/29 11:32:54;;;;;;;2.22;1.42;;;;;;;20.25;67.54;100002.16;5953777;24;20036;-90
2021/08/29 11:35:21;;;;;;;1.85;1.55;;;;;;;20.29;67.09;100000.88;5956365;24;20127;-91
2021/08/29 11:38:12;;;;;;;1.50;1.40;;;;;;;20.24;67.05;99993.31;5956168;24;20028;-88
2021/08/29 11:41:00;;;;;;;1.80;1.27;;;;;;;20.22;67.20;99999.78;5957207;24;20083;-90
2021/08/29 11:43:27;;;;;;;1.73;1.33;;;;;;;20.25;67.00;100000.34;5954960;24;20036;-88